createdAt,value
2023-11-01T00:00:04.207Z,1.73
2023-11-01T00:03:15.262Z,1.75
2023-11-01T00:06:21.192Z,1.70
2023-11-01T00:09:27.182Z,1.88
2023-11-01T00:12:33.221Z,2.30
2023-11-01T00:15:42.175Z,2.45
2023-11-01T00:18:49.228Z,2.38
2023-11-01T00:21:55.180Z,2.25
2023-11-01T00:25:02.212Z,2.00
2023-11-01T00:28:08.352Z,1.90
2023-11-01T00:31:16.223Z,2.40
2023-11-01T00:34:24.227Z,1.70
2023-11-01T00:37:31.209Z,1.90
2023-11-01T00:40:37.258Z,2.40
2023-11-01T00:43:44.234Z,2.10
2023-11-01T00:46:51.268Z,2.20
2023-11-01T00:49:59.249Z,2.08
2023-11-01T00:53:05.203Z,2.03
2023-11-01T00:56:14.305Z,2.05
2023-11-01T00:59:21.249Z,1.95
2023-11-01T01:02:27.326Z,2.08
2023-11-01T01:05:34.344Z,2.10
2023-11-01T01:08:42.230Z,1.95
2023-11-01T01:11:48.269Z,2.00
2023-11-01T01:14:48.051Z,2.25
2023-11-01T01:17:48.301Z,1.98
2023-11-01T01:20:56.255Z,1.80
2023-11-01T01:24:03.247Z,1.70
2023-11-01T01:27:09.224Z,2.00
2023-11-01T01:30:16.309Z,1.80
2023-11-01T01:33:23.305Z,2.20
2023-11-01T01:36:31.362Z,2.00
2023-11-01T01:39:37.248Z,2.00
2023-11-01T01:42:44.304Z,1.65
2023-11-01T01:45:53.798Z,2.20
2023-11-01T01:49:03.278Z,2.00
2023-11-01T01:52:13.257Z,2.25
2023-11-01T01:55:22.263Z,2.03
2023-11-01T01:58:31.285Z,2.10
2023-11-01T02:01:44.932Z,2.08
2023-11-01T02:04:53.291Z,1.95
2023-11-01T02:08:01.479Z,2.10
2023-11-01T02:11:10.365Z,2.40
2023-11-01T02:14:17.410Z,2.20
2023-11-01T02:17:24.357Z,1.90
2023-11-01T02:20:30.402Z,2.30
2023-11-01T02:23:35.178Z,2.97
2023-11-01T02:26:39.269Z,2.10
2023-11-01T02:29:46.333Z,2.28
2023-11-01T02:32:57.365Z,2.35
2023-11-01T02:36:03.296Z,2.10
2023-11-01T02:39:10.991Z,2.35
2023-11-01T02:42:19.328Z,1.90
2023-11-01T02:45:27.302Z,2.58
2023-11-01T02:48:33.289Z,3.60
2023-11-01T02:51:42.306Z,2.63
2023-11-01T02:54:48.320Z,2.45
2023-11-01T02:57:56.373Z,2.83
2023-11-01T03:01:03.320Z,3.33
2023-11-01T03:04:09.327Z,2.30
2023-11-01T03:07:15.308Z,1.90
2023-11-01T03:10:21.342Z,3.00
2023-11-01T03:13:30.359Z,2.08
2023-11-01T03:16:37.351Z,1.67
2023-11-01T03:19:43.315Z,2.20
2023-11-01T03:22:49.545Z,1.90
2023-11-01T03:25:56.336Z,1.70
2023-11-01T03:29:06.304Z,1.63
2023-11-01T03:32:14.450Z,1.90
2023-11-01T03:35:20.355Z,2.00
2023-11-01T03:38:26.364Z,1.88
2023-11-01T03:41:32.468Z,1.80
2023-11-01T03:44:40.368Z,1.55
2023-11-01T03:47:47.380Z,1.92
2023-11-01T03:50:48.349Z,2.25
2023-11-01T03:53:48.399Z,1.90
2023-11-01T03:56:54.364Z,1.88
2023-11-01T04:00:01.437Z,1.80
2023-11-01T04:03:08.705Z,1.80
2023-11-01T04:06:16.345Z,1.67
2023-11-01T04:09:23.390Z,1.88
2023-11-01T04:12:29.508Z,1.80
2023-11-01T04:15:40.874Z,1.73
2023-11-01T04:18:48.367Z,1.92
2023-11-01T04:21:54.336Z,1.88
2023-11-01T04:25:01.437Z,1.98
2023-11-01T04:28:08.399Z,1.70
2023-11-01T04:31:15.378Z,1.80
2023-11-01T04:34:23.914Z,1.58
2023-11-01T04:37:32.384Z,1.80
2023-11-01T04:40:38.368Z,1.90
2023-11-01T04:43:45.441Z,1.85
2023-11-01T04:46:52.379Z,1.70
2023-11-01T04:49:59.387Z,1.67
2023-11-01T04:53:06.365Z,1.98
2023-11-01T04:56:16.600Z,1.75
2023-11-01T04:59:25.388Z,1.60
2023-11-01T05:02:27.284Z,1.98
2023-11-01T05:05:27.451Z,1.90
2023-11-01T05:08:34.504Z,1.80
2023-11-01T05:11:46.936Z,1.60
2023-11-01T05:14:54.389Z,1.60
2023-11-01T05:18:03.928Z,1.70
2023-11-01T05:21:11.477Z,1.50
2023-11-01T05:24:18.369Z,1.60
2023-11-01T05:27:29.429Z,1.67
2023-11-01T05:30:36.470Z,1.83
2023-11-01T05:33:43.411Z,1.58
2023-11-01T05:36:52.339Z,1.67
2023-11-01T05:39:58.377Z,1.88
2023-11-01T05:43:06.524Z,1.80
2023-11-01T05:46:14.402Z,1.90
2023-11-01T05:49:22.279Z,2.47
2023-11-01T05:52:28.344Z,12.88
2023-11-01T05:55:42.935Z,7.47
2023-11-01T05:59:07.002Z,4.60
2023-11-01T06:02:13.048Z,7.60
2023-11-01T06:05:24.700Z,5.07
2023-11-01T06:08:32.075Z,3.50
2023-11-01T06:11:40.053Z,6.13
2023-11-01T06:14:48.043Z,3.55
2023-11-01T06:17:54.034Z,2.70
2023-11-01T06:21:02.114Z,2.63
2023-11-01T06:24:10.976Z,2.53
2023-11-01T06:27:21.092Z,2.08
2023-11-01T06:30:28.087Z,2.35
2023-11-01T06:33:34.180Z,2.38
2023-11-01T06:36:42.095Z,2.38
2023-11-01T06:39:48.132Z,2.10
2023-11-01T06:42:58.304Z,2.00
2023-11-01T06:46:05.296Z,2.10
2023-11-01T06:49:11.293Z,1.75
2023-11-01T06:52:19.365Z,1.88
2023-11-01T06:55:29.264Z,2.10
2023-11-01T06:58:29.130Z,1.98
2023-11-01T07:01:30.292Z,1.90
2023-11-01T07:04:36.272Z,2.33
2023-11-01T07:07:44.365Z,1.85
2023-11-01T07:10:47.051Z,2.13
2023-11-01T07:13:48.445Z,1.90
2023-11-01T07:16:55.436Z,1.80
2023-11-01T07:20:02.331Z,2.00
2023-11-01T07:23:10.303Z,1.83
2023-11-01T07:26:21.558Z,1.90
2023-11-01T07:29:28.670Z,2.17
2023-11-01T07:32:34.907Z,2.60
2023-11-01T07:35:42.593Z,2.22
2023-11-01T07:38:50.632Z,2.50
2023-11-01T07:41:56.612Z,2.40
2023-11-01T07:45:05.285Z,2.25
2023-11-01T07:48:11.375Z,2.08
2023-11-01T07:51:20.285Z,1.90
2023-11-01T07:54:28.324Z,2.70
2023-11-01T07:57:34.362Z,2.33
2023-11-01T08:00:40.306Z,2.58
2023-11-01T08:03:47.630Z,2.33
2023-11-01T08:06:57.516Z,2.42
2023-11-01T08:10:06.443Z,1.95
2023-11-01T08:13:06.927Z,2.35
2023-11-01T08:16:12.982Z,2.60
2023-11-01T08:19:20.057Z,2.53
2023-11-01T08:22:27.079Z,2.53
2023-11-01T08:25:38.539Z,2.63
2023-11-01T08:28:45.010Z,2.42
2023-11-01T08:31:52.064Z,2.58
2023-11-01T08:34:59.051Z,2.70
2023-11-01T08:38:06.049Z,2.53
2023-11-01T08:41:15.045Z,2.28
2023-11-01T08:44:24.021Z,2.45
2023-11-01T08:47:51.154Z,2.33
2023-11-01T08:50:58.027Z,2.10
2023-11-01T08:54:04.037Z,2.20
2023-11-01T08:57:12.327Z,2.35
2023-11-01T09:00:21.626Z,2.15
2023-11-01T09:03:33.225Z,2.42
2023-11-01T09:06:42.046Z,2.75
2023-11-01T09:09:48.035Z,2.60
2023-11-01T09:12:57.143Z,2.50
2023-11-01T09:16:03.047Z,2.50
2023-11-01T09:19:09.148Z,2.40
2023-11-01T09:22:17.051Z,2.22
2023-11-01T09:25:23.065Z,2.70
2023-11-01T09:28:30.032Z,2.53
2023-11-01T09:31:36.185Z,2.78
2023-11-01T09:34:43.112Z,2.15
2023-11-01T09:37:49.274Z,2.33
2023-11-01T09:40:56.058Z,2.40
2023-11-01T09:44:04.086Z,2.17
2023-11-01T09:47:11.147Z,2.80
2023-11-01T09:50:18.081Z,2.45
2023-11-01T09:53:25.209Z,2.03
2023-11-01T09:56:32.096Z,2.42
2023-11-01T09:59:42.162Z,2.75
2023-11-01T10:02:48.292Z,2.25
2023-11-01T10:05:55.448Z,2.63
2023-11-01T10:09:04.105Z,2.33
2023-11-01T10:12:10.177Z,2.80
2023-11-01T10:15:17.054Z,2.33
2023-11-01T10:18:25.165Z,2.28
2023-11-01T10:21:31.075Z,2.67
2023-11-01T10:24:39.120Z,2.67
2023-11-01T10:27:45.094Z,2.30
2023-11-01T10:30:55.100Z,2.88
2023-11-01T10:34:02.170Z,2.60
2023-11-01T10:37:14.204Z,2.20
2023-11-01T10:40:21.105Z,1.98
2023-11-01T10:43:28.139Z,2.50
2023-11-01T10:46:36.079Z,2.42
2023-11-01T10:49:42.142Z,2.28
2023-11-01T10:52:48.134Z,2.30
2023-11-01T10:55:54.180Z,2.42
2023-11-01T10:59:03.119Z,2.15
2023-11-01T11:02:13.203Z,2.03
2023-11-01T11:05:23.162Z,2.30
2023-11-01T11:08:29.136Z,2.40
2023-11-01T11:11:35.183Z,2.03
2023-11-01T11:15:00.212Z,1.95
2023-11-01T11:18:21.119Z,2.20
2023-11-01T11:22:08.202Z,1.83
2023-11-01T11:25:14.400Z,2.10
2023-11-01T11:28:23.487Z,1.92
2023-11-01T11:31:34.228Z,1.90
2023-11-01T11:34:34.062Z,2.15
2023-11-01T11:37:43.268Z,2.00
2023-11-01T11:40:50.234Z,2.00
2023-11-01T11:44:13.278Z,2.22
2023-11-01T11:47:40.240Z,1.77
2023-11-01T11:50:48.186Z,2.20
2023-11-01T11:53:57.206Z,2.00
2023-11-01T11:57:04.297Z,2.08
2023-11-01T12:00:20.176Z,1.90
2023-11-01T12:03:38.240Z,2.55
2023-11-01T12:06:45.201Z,2.00
2023-11-01T12:09:56.185Z,2.22
2023-11-01T12:13:12.159Z,2.38
2023-11-01T12:16:19.312Z,2.00
2023-11-01T12:19:30.173Z,2.25
2023-11-01T12:22:37.181Z,2.08
2023-11-01T12:25:45.194Z,2.17
2023-11-01T12:28:54.184Z,2.40
2023-11-01T12:32:01.189Z,1.90
2023-11-01T12:35:19.069Z,2.05
2023-11-01T12:38:27.163Z,1.95
2023-11-01T12:41:38.216Z,2.08
2023-11-01T12:44:44.264Z,2.10
2023-11-01T12:47:59.221Z,2.35
2023-11-01T12:51:06.188Z,2.20
2023-11-01T12:54:12.206Z,2.05
2023-11-01T12:57:21.180Z,2.10
2023-11-01T13:00:27.453Z,1.85
2023-11-01T13:03:35.536Z,1.98
2023-11-01T13:06:42.202Z,1.83
2023-11-01T13:09:51.233Z,2.30
2023-11-01T13:12:59.211Z,2.08
2023-11-01T13:16:05.252Z,2.05
2023-11-01T13:19:11.224Z,2.58
2023-11-01T13:22:18.209Z,1.98
2023-11-01T13:25:24.219Z,2.20
2023-11-01T13:28:31.219Z,2.20
2023-11-01T13:31:31.101Z,2.20
2023-11-01T13:34:32.221Z,2.10
2023-11-01T13:37:41.233Z,2.20
2023-11-01T13:40:50.320Z,1.88
2023-11-01T13:43:58.261Z,2.20
2023-11-01T13:47:04.286Z,1.80
2023-11-01T13:50:11.246Z,2.00
2023-11-01T13:53:21.187Z,2.10
2023-11-01T13:56:30.219Z,2.17
2023-11-01T13:59:38.304Z,2.45
2023-11-01T14:02:46.349Z,1.95
2023-11-01T14:05:53.468Z,2.40
2023-11-01T14:09:01.365Z,2.05
2023-11-01T14:12:10.290Z,2.00
2023-11-01T14:15:18.257Z,2.30
2023-11-01T14:18:28.303Z,2.10
2023-11-01T14:21:36.206Z,2.22
2023-11-01T14:24:43.287Z,1.92
2023-11-01T14:27:50.244Z,2.03
2023-11-01T14:30:59.265Z,2.13
2023-11-01T14:34:08.348Z,2.25
2023-11-01T14:37:17.260Z,2.03
2023-11-01T14:40:23.405Z,1.90
2023-11-01T14:43:33.282Z,2.40
2023-11-01T14:46:42.231Z,2.08
2023-11-01T14:49:48.315Z,2.03
2023-11-01T14:52:48.193Z,2.20
2023-11-01T14:55:48.275Z,2.70
2023-11-01T14:58:56.408Z,1.88
2023-11-01T15:02:06.403Z,2.53
2023-11-01T15:05:14.362Z,2.22
2023-11-01T15:08:20.332Z,2.55
2023-11-01T15:11:27.383Z,2.50
2023-11-01T15:14:33.396Z,2.40
2023-11-01T15:17:43.435Z,2.40
2023-11-01T15:20:53.548Z,2.22
2023-11-01T15:24:01.548Z,2.30
2023-11-01T15:27:08.472Z,2.10
2023-11-01T15:30:17.447Z,2.47
2023-11-01T15:33:28.484Z,2.20
2023-11-01T15:36:36.412Z,1.90
2023-11-01T15:39:42.477Z,2.10
2023-11-01T15:42:53.416Z,2.55
2023-11-01T15:45:59.406Z,2.45
2023-11-01T15:49:08.453Z,2.40
2023-11-01T15:52:18.400Z,2.22
2023-11-01T15:55:24.394Z,2.40
2023-11-01T15:58:33.423Z,2.22
2023-11-01T16:01:33.287Z,2.60
2023-11-01T16:04:35.616Z,2.20
2023-11-01T16:07:44.742Z,2.00
2023-11-01T16:10:53.373Z,2.03
2023-11-01T16:13:59.449Z,2.33
2023-11-01T16:17:07.386Z,2.17
2023-11-01T16:20:15.479Z,2.40
2023-11-01T16:23:22.413Z,2.20
2023-11-01T16:26:31.226Z,2.50
2023-11-01T16:29:38.517Z,2.20
2023-11-01T16:33:06.285Z,2.53
2023-11-01T16:36:16.219Z,2.83
2023-11-01T16:39:23.474Z,2.83
2023-11-01T16:42:31.183Z,2.40
2023-11-01T16:45:37.259Z,2.90
2023-11-01T16:48:45.236Z,2.38
2023-11-01T16:51:55.200Z,2.65
2023-11-01T16:55:02.233Z,2.28
2023-11-01T16:58:28.269Z,2.65
2023-11-01T17:01:35.383Z,3.17
2023-11-01T17:04:44.324Z,2.67
2023-11-01T17:07:53.256Z,3.13
2023-11-01T17:10:59.291Z,2.65
2023-11-01T17:14:07.226Z,3.38
2023-11-01T17:17:08.244Z,2.50
2023-11-01T17:20:14.216Z,2.80
2023-11-01T17:23:23.243Z,3.17
2023-11-01T17:26:47.225Z,3.22
2023-11-01T17:29:53.520Z,2.63
2023-11-01T17:33:01.356Z,2.47
2023-11-01T17:36:08.289Z,2.60
2023-11-01T17:39:19.284Z,3.10
2023-11-01T17:42:25.277Z,2.90
2023-11-01T17:45:34.631Z,3.10
2023-11-01T17:48:41.239Z,2.55
2023-11-01T17:51:49.278Z,2.63
2023-11-01T17:54:59.215Z,3.03
2023-11-01T17:58:08.332Z,2.75
2023-11-01T18:01:15.317Z,2.50
2023-11-01T18:04:23.478Z,2.60
2023-11-01T18:07:33.377Z,2.45
2023-11-01T18:10:44.309Z,2.60
2023-11-01T18:13:54.311Z,2.00
2023-11-01T18:17:00.363Z,2.75
2023-11-01T18:20:09.281Z,2.70
2023-11-01T18:23:15.319Z,2.75
2023-11-01T18:26:33.267Z,3.13
2023-11-01T18:29:39.302Z,2.92
2023-11-01T18:32:45.362Z,3.50
2023-11-01T18:35:54.280Z,3.00
2023-11-01T18:39:06.861Z,3.38
2023-11-01T18:42:18.761Z,3.45
2023-11-01T18:45:30.824Z,3.40
2023-11-01T18:48:39.791Z,3.42
2023-11-01T18:52:05.844Z,3.63
2023-11-01T18:55:13.749Z,2.85
2023-11-01T18:58:24.601Z,3.13
2023-11-01T19:01:36.156Z,3.60
2023-11-01T19:04:46.579Z,3.88
2023-11-01T19:07:56.508Z,2.95
2023-11-01T19:11:04.516Z,3.30
2023-11-01T19:14:13.477Z,3.30
2023-11-01T19:17:20.636Z,3.47
2023-11-01T19:20:27.547Z,3.30
2023-11-01T19:23:35.553Z,3.45
2023-11-01T19:26:43.498Z,3.53
2023-11-01T19:29:52.608Z,3.60
2023-11-01T19:33:00.835Z,2.88
2023-11-01T19:36:15.536Z,2.97
2023-11-01T19:39:24.603Z,3.33
2023-11-01T19:42:31.532Z,3.28
2023-11-01T19:45:40.608Z,3.10
2023-11-01T19:48:48.584Z,3.08
2023-11-01T19:51:55.573Z,3.40
2023-11-01T19:55:02.493Z,3.20
2023-11-01T19:58:09.567Z,2.90
2023-11-01T20:01:18.573Z,3.20
2023-11-01T20:04:34.602Z,3.35
2023-11-01T20:07:42.528Z,2.90
2023-11-01T20:10:49.542Z,2.90
2023-11-01T20:13:55.576Z,3.20
2023-11-01T20:17:05.590Z,2.92
2023-11-01T20:20:12.565Z,2.88
2023-11-01T20:23:20.537Z,3.00
2023-11-01T20:26:38.548Z,2.97
2023-11-01T20:29:46.590Z,2.95
2023-11-01T20:32:57.582Z,3.10
2023-11-01T20:36:05.585Z,2.95
2023-11-01T20:39:13.607Z,2.90
2023-11-01T20:42:21.625Z,3.00
2023-11-01T20:45:28.564Z,2.95
2023-11-01T20:48:39.596Z,3.35
2023-11-01T20:51:47.391Z,3.10
2023-11-01T20:55:06.376Z,2.65
2023-11-01T20:58:13.507Z,3.35
2023-11-01T21:01:21.425Z,3.17
2023-11-01T21:04:32.445Z,3.25
2023-11-01T21:07:39.370Z,3.50
2023-11-01T21:10:47.382Z,3.20
2023-11-01T21:13:55.385Z,3.10
2023-11-01T21:17:02.386Z,3.13
2023-11-01T21:20:10.371Z,2.72
2023-11-01T21:23:17.366Z,2.72
2023-11-01T21:26:24.383Z,3.10
2023-11-01T21:29:30.455Z,3.13
2023-11-01T21:32:37.380Z,2.70
2023-11-01T21:35:45.393Z,3.08
2023-11-01T21:38:53.393Z,3.63
2023-11-01T21:42:01.451Z,3.10
2023-11-01T21:45:08.559Z,3.00
2023-11-01T21:48:15.446Z,3.13
2023-11-01T21:51:28.434Z,3.10
2023-11-01T21:54:40.403Z,2.55
2023-11-01T21:57:46.406Z,2.80
2023-11-01T22:00:53.381Z,2.50
2023-11-01T22:04:05.721Z,2.85
2023-11-01T22:07:20.413Z,2.33
2023-11-01T22:10:34.414Z,3.17
2023-11-01T22:13:41.421Z,2.15
2023-11-01T22:16:49.457Z,2.30
2023-11-01T22:19:58.408Z,2.35
2023-11-01T22:23:14.421Z,2.25
2023-11-01T22:26:22.427Z,3.50
2023-11-01T22:29:29.451Z,1.90
2023-11-01T22:32:42.459Z,2.20
2023-11-01T22:35:53.452Z,2.20
2023-11-01T22:39:01.446Z,2.00
2023-11-01T22:42:09.631Z,2.15
2023-11-01T22:45:20.510Z,2.10
2023-11-01T22:48:27.564Z,1.65
2023-11-01T22:51:35.425Z,1.80
2023-11-01T22:54:44.454Z,2.28
2023-11-01T22:57:50.448Z,2.20
2023-11-01T23:00:57.508Z,2.22
2023-11-01T23:04:04.564Z,2.00
2023-11-01T23:07:12.456Z,1.80
2023-11-01T23:10:14.298Z,1.90
2023-11-01T23:13:14.431Z,1.48
2023-11-01T23:16:21.561Z,1.70
2023-11-01T23:19:30.483Z,1.70
2023-11-01T23:22:39.613Z,1.60
2023-11-01T23:25:51.509Z,1.60
2023-11-01T23:29:06.319Z,1.90
2023-11-01T23:32:19.548Z,1.70
2023-11-01T23:35:30.523Z,1.48
2023-11-01T23:38:37.506Z,1.70
2023-11-01T23:41:56.483Z,1.55
2023-11-01T23:45:05.668Z,1.50
2023-11-01T23:48:16.611Z,1.40
2023-11-01T23:51:24.555Z,1.60
2023-11-01T23:54:34.579Z,1.35
2023-11-01T23:57:46.492Z,1.40
